Time;durP1;ratioP1;P1;durP2;ratioP2;P2;SDS_P1;SDS_P2;PMS_P1;PMS_P2;Temp;Humidity;BMP_temperature;BMP_pressure;BME280_temperature;BME280_humidity;BME280_pressure;Samples;Min_cycle;Max_cycle;Signal;HPM_P1;HPM_P2
2021/03/18 00:00:49;;;;;;;21.70;8.98;;;;;;;3.32;68.60;99762.89;1757659;80;21136;-72
2021/03/18 00:03:19;;;;;;;24.25;9.23;;;;;;;3.29;68.60;99765.47;1752210;81;22332;-70
2021/03/18 00:05:48;;;;;;;21.93;8.75;;;;;;;3.27;68.61;99761.75;1752170;80;21180;-70
2021/03/18 00:08:17;;;;;;;20.27;8.13;;;;;;;3.29;68.58;99765.47;1751938;81;21207;-70
2021/03/18 00:10:45;;;;;;;22.15;8.55;;;;;;;3.28;68.62;99762.55;1768502;80;21148;-69
2021/03/18 00:13:15;;;;;;;21.05;8.70;;;;;;;3.26;68.59;99760.16;1743533;80;21742;-70
2021/03/18 00:15:43;;;;;;;18.02;8.65;;;;;;;3.24;68.57;99760.89;1744467;80;22450;-70
2021/03/18 00:18:13;;;;;;;16.32;7.65;;;;;;;3.23;68.59;99763.25;1744984;80;21211;-69
2021/03/18 00:20:41;;;;;;;19.23;8.28;;;;;;;3.25;68.58;99767.77;1732171;81;21214;-70
2021/03/18 00:23:09;;;;;;;16.82;8.35;;;;;;;3.20;68.47;99766.34;1747627;81;21197;-70
2021/03/18 00:25:36;;;;;;;17.02;6.33;;;;;;;3.16;68.49;99771.79;1749930;81;21221;-70
2021/03/18 00:28:05;;;;;;;19.82;7.60;;;;;;;3.12;68.48;99760.06;1745705;80;21286;-69
2021/03/18 00:30:32;;;;;;;19.67;6.78;;;;;;;3.08;68.54;99762.88;1752882;80;21274;-70
2021/03/18 00:33:01;;;;;;;19.23;7.42;;;;;;;3.07;68.51;99759.16;1740178;80;21631;-70
2021/03/18 00:35:29;;;;;;;19.40;7.53;;;;;;;3.03;68.55;99760.92;1749593;81;21269;-71
2021/03/18 00:37:57;;;;;;;19.48;8.25;;;;;;;3.03;68.54;99760.92;1747174;80;21161;-70
2021/03/18 00:40:30;;;;;;;21.05;7.83;;;;;;;3.01;68.54;99762.98;1749455;80;21451;-70
2021/03/18 00:43:08;;;;;;;17.45;7.90;;;;;;;3.00;68.50;99765.34;1736802;81;21160;-71
2021/03/18 00:45:37;;;;;;;18.87;8.28;;;;;;;2.99;68.49;99765.02;1769247;80;22214;-70
2021/03/18 00:48:07;;;;;;;15.10;7.28;;;;;;;2.99;68.46;99765.02;1756195;80;21240;-70
2021/03/18 00:50:43;;;;;;;17.62;7.45;;;;;;;2.97;68.44;99765.78;1734857;80;21251;-70
2021/03/18 00:53:18;;;;;;;17.95;7.50;;;;;;;2.96;68.46;99762.03;1735143;81;21208;-71
2021/03/18 00:55:46;;;;;;;18.67;8.05;;;;;;;2.96;68.46;99767.31;1742670;81;21251;-71
2021/03/18 00:58:16;;;;;;;22.27;8.08;;;;;;;2.93;68.53;99764.63;1749263;81;21238;-69
2021/03/18 01:00:47;;;;;;;17.02;7.42;;;;;;;2.93;68.54;99763.80;1749053;80;21175;-70
2021/03/18 01:03:15;;;;;;;16.35;7.35;;;;;;;2.92;68.55;99757.73;1744523;80;21574;-70
2021/03/18 01:05:58;;;;;;;21.85;9.38;;;;;;;2.93;68.52;99766.44;1739241;80;21786;-71
2021/03/18 01:08:27;;;;;;;19.87;9.27;;;;;;;2.91;68.48;99756.13;1735432;80;21248;-70
2021/03/18 01:11:03;;;;;;;20.95;8.98;;;;;;;2.87;68.49;99756.82;1754908;80;21149;-70
2021/03/18 01:13:42;;;;;;;20.33;9.43;;;;;;;2.87;68.54;99756.30;1826657;77;22357;-70
2021/03/18 01:16:18;;;;;;;17.23;8.63;;;;;;;2.78;68.60;99752.38;1795560;79;21772;-70
2021/03/18 01:18:52;;;;;;;18.57;9.30;;;;;;;2.74;68.59;99756.50;1789508;78;22350;-70
2021/03/18 01:21:28;;;;;;;17.10;8.95;;;;;;;2.71;68.58;99752.47;1788622;79;21729;-70
2021/03/18 01:23:56;;;;;;;16.42;8.13;;;;;;;2.69;68.60;99751.08;1793144;79;21210;-70
2021/03/18 01:26:24;;;;;;;20.35;9.58;;;;;;;2.68;68.65;99744.20;1801939;79;21296;-69
2021/03/18 01:28:52;;;;;;;16.77;8.98;;;;;;;2.66;68.65;99747.57;1802426;79;21187;-71
2021/03/18 01:31:20;;;;;;;19.80;10.05;;;;;;;2.66;68.69;99744.94;1803035;79;22699;-71
2021/03/18 01:33:49;;;;;;;16.00;8.53;;;;;;;2.65;68.72;99743.34;1807161;79;21170;-70
2021/03/18 01:36:17;;;;;;;18.67;8.68;;;;;;;2.64;68.79;99748.33;1800860;79;21171;-69
2021/03/18 01:38:46;;;;;;;17.20;8.28;;;;;;;2.61;68.87;99749.58;1793615;79;21195;-70
2021/03/18 01:41:14;;;;;;;17.75;9.13;;;;;;;2.59;68.99;99747.14;1797402;79;21178;-70
2021/03/18 01:43:44;;;;;;;20.40;8.40;;;;;;;2.57;69.11;99743.95;1812047;79;22301;-71
2021/03/18 01:46:12;;;;;;;16.90;8.63;;;;;;;2.57;69.21;99745.27;1804129;79;21291;-71
2021/03/18 01:48:41;;;;;;;19.52;8.45;;;;;;;2.57;69.33;99745.27;1804007;79;21594;-71
2021/03/18 01:51:09;;;;;;;17.02;8.18;;;;;;;2.57;69.36;99747.11;1795877;79;21163;-71
2021/03/18 01:53:37;;;;;;;18.48;7.75;;;;;;;2.54;69.43;99752.30;1801034;79;21135;-70
2021/03/18 01:56:05;;;;;;;15.53;7.05;;;;;;;2.54;69.52;99752.30;1805153;79;22705;-70
2021/03/18 01:58:33;;;;;;;16.77;7.67;;;;;;;2.51;69.59;99749.31;1813187;79;21634;-69
2021/03/18 02:01:06;;;;;;;20.68;8.20;;;;;;;2.48;69.66;99751.88;1800913;79;21198;-70
2021/03/18 02:03:34;;;;;;;16.77;7.37;;;;;;;2.46;69.75;99753.92;1784282;79;21246;-71
2021/03/18 02:06:03;;;;;;;18.80;7.75;;;;;;;2.45;69.85;99747.05;1791340;79;21269;-71
2021/03/18 02:08:31;;;;;;;20.30;7.80;;;;;;;2.46;69.91;99746.02;1810152;79;21183;-70
2021/03/18 02:10:59;;;;;;;14.50;7.12;;;;;;;2.48;69.97;99748.44;1789360;79;21860;-70
2021/03/18 02:13:27;;;;;;;18.90;8.15;;;;;;;2.48;69.98;99745.80;1788723;80;21163;-69
2021/03/18 02:15:59;;;;;;;16.77;8.58;;;;;;;2.48;69.98;99749.23;1796057;79;21291;-69
2021/03/18 02:18:50;;;;;;;16.07;8.33;;;;;;;2.51;69.97;99750.63;1799035;79;21103;-70
2021/03/18 02:22:00;;;;;;;17.25;8.30;;;;;;;2.50;69.93;99749.00;1791076;79;21563;-70
2021/03/18 02:24:58;;;;;;;14.20;7.50;;;;;;;2.49;69.93;99756.11;1792342;79;21175;-70
2021/03/18 02:27:51;;;;;;;14.90;7.33;;;;;;;2.49;69.93;99752.16;1800140;78;21257;-70
2021/03/18 02:30:43;;;;;;;16.15;7.25;;;;;;;2.51;69.96;99746.16;1799797;79;21198;-70
2021/03/18 02:33:25;;;;;;;21.40;8.40;;;;;;;2.49;69.93;99750.84;1808951;79;21191;-72
2021/03/18 02:36:00;;;;;;;17.40;7.85;;;;;;;2.47;69.95;99759.50;1813759;78;21191;-72
2021/03/18 02:38:40;;;;;;;14.75;6.97;;;;;;;2.47;69.97;99759.98;1792911;79;21163;-71
2021/03/18 02:41:25;;;;;;;19.62;8.48;;;;;;;2.47;69.96;99763.45;1805642;79;21139;-70
2021/03/18 02:44:22;;;;;;;19.07;8.40;;;;;;;2.47;69.90;99774.00;1786332;79;21624;-72
2021/03/18 02:46:57;;;;;;;18.15;8.85;;;;;;;2.45;69.77;99766.81;1770921;79;21175;-72
2021/03/18 02:49:26;;;;;;;13.20;7.67;;;;;;;2.42;69.69;99781.75;1803640;79;21444;-71
2021/03/18 02:51:54;;;;;;;16.93;8.80;;;;;;;2.40;69.65;99778.53;1784927;79;21191;-72
2021/03/18 02:54:22;;;;;;;16.73;8.33;;;;;;;2.40;69.63;99774.57;1784105;79;21166;-71
2021/03/18 02:56:51;;;;;;;17.87;8.60;;;;;;;2.39;69.57;99784.03;1789798;79;21793;-73
2021/03/18 02:59:25;;;;;;;18.73;8.58;;;;;;;2.38;69.54;99782.44;1769438;79;21131;-72
2021/03/18 03:01:55;;;;;;;15.90;8.18;;;;;;;2.37;69.50;99776.36;1813027;79;21358;-71
2021/03/18 03:04:24;;;;;;;13.98;7.17;;;;;;;2.39;69.41;99787.98;1815728;79;21177;-71
2021/03/18 03:06:51;;;;;;;14.50;7.65;;;;;;;2.35;69.37;99781.84;1797780;79;21656;-71
2021/03/18 03:09:20;;;;;;;14.33;7.15;;;;;;;2.37;69.38;99781.63;1808086;79;21183;-73
2021/03/18 03:11:48;;;;;;;16.42;9.25;;;;;;;2.37;69.38;99784.75;1792478;79;21127;-71
2021/03/18 03:14:16;;;;;;;17.37;8.78;;;;;;;2.35;69.30;99783.67;1801230;79;22697;-71
2021/03/18 03:16:45;;;;;;;20.15;8.05;;;;;;;2.32;69.28;99778.33;1806069;78;21242;-71
2021/03/18 03:19:13;;;;;;;17.05;8.38;;;;;;;2.32;69.23;99782.80;1800516;79;21130;-71
2021/03/18 03:21:42;;;;;;;16.10;8.80;;;;;;;2.31;69.21;99786.47;1812935;79;21191;-71
2021/03/18 03:24:11;;;;;;;23.50;9.35;;;;;;;2.32;69.23;99781.48;1796642;79;21143;-72
2021/03/18 03:26:39;;;;;;;17.80;8.43;;;;;;;2.33;69.22;99787.03;1813950;79;21353;-72
2021/03/18 03:29:08;;;;;;;21.73;9.48;;;;;;;2.36;69.15;99791.86;1809460;79;21175;-72
2021/03/18 03:31:36;;;;;;;18.02;8.33;;;;;;;2.34;69.08;99793.41;1811907;79;21171;-74
2021/03/18 03:34:05;;;;;;;18.00;9.23;;;;;;;2.36;68.99;99798.45;1812942;79;21190;-71
2021/03/18 03:36:34;;;;;;;20.40;9.80;;;;;;;2.35;68.97;99796.33;1814960;79;21088;-71
2021/03/18 03:39:07;;;;;;;20.05;9.78;;;;;;;2.37;68.96;99805.84;1799589;78;22400;-70
2021/03/18 03:41:35;;;;;;;20.10;10.10;;;;;;;2.38;68.92;99804.83;1806507;79;21132;-72
2021/03/18 03:44:04;;;;;;;21.42;9.60;;;;;;;2.38;68.90;99807.47;1825084;78;21151;-70
2021/03/18 03:46:33;;;;;;;17.87;8.40;;;;;;;2.37;68.83;99800.08;1801274;79;21182;-71
2021/03/18 03:49:03;;;;;;;22.32;9.15;;;;;;;2.34;68.75;99800.00;1802971;79;21135;-71
2021/03/18 03:51:37;;;;;;;20.48;9.85;;;;;;;2.34;68.70;99800.52;1789288;79;21369;-71
2021/03/18 03:54:05;;;;;;;20.60;8.98;;;;;;;2.35;68.62;99804.75;1784168;79;21167;-71
2021/03/18 03:56:41;;;;;;;20.90;8.88;;;;;;;2.35;68.57;99812.14;1796136;79;21179;-72
2021/03/18 03:59:21;;;;;;;17.45;8.90;;;;;;;2.35;68.47;99809.51;1807594;79;21143;-72
2021/03/18 04:01:54;;;;;;;23.42;8.65;;;;;;;2.38;68.41;99812.22;1790311;79;21170;-71
2021/03/18 04:04:31;;;;;;;14.70;7.80;;;;;;;2.35;68.25;99808.70;1783400;80;21830;-71
2021/03/18 04:07:01;;;;;;;15.98;7.80;;;;;;;2.35;68.16;99810.02;1809201;79;21194;-71
2021/03/18 04:09:29;;;;;;;15.15;7.85;;;;;;;2.32;68.08;99815.73;1808925;77;21238;-71
2021/03/18 04:11:59;;;;;;;17.23;8.03;;;;;;;2.31;68.07;99816.77;1813445;79;21060;-69
2021/03/18 04:14:34;;;;;;;16.73;7.03;;;;;;;2.29;67.96;99818.81;1755780;80;21135;-71
2021/03/18 04:17:10;;;;;;;21.40;8.13;;;;;;;2.30;67.91;99819.09;1789976;79;21831;-71
2021/03/18 04:19:41;;;;;;;14.83;7.00;;;;;;;2.28;67.90;99818.02;1802567;79;21213;-71
2021/03/18 04:22:09;;;;;;;13.25;6.45;;;;;;;2.28;67.87;99833.82;1811992;77;21126;-70
2021/03/18 04:24:37;;;;;;;17.02;7.22;;;;;;;2.27;67.86;99829.59;1772704;78;21100;-71
2021/03/18 04:27:05;;;;;;;19.32;7.15;;;;;;;2.26;67.86;99829.78;1794062;78;21163;-72
2021/03/18 04:29:33;;;;;;;12.55;7.12;;;;;;;2.24;67.87;99831.34;1806569;77;21279;-72
2021/03/18 04:32:01;;;;;;;14.33;7.47;;;;;;;2.22;67.83;99825.98;1785542;77;21123;-71
2021/03/18 04:34:31;;;;;;;19.67;7.83;;;;;;;2.19;67.83;99825.11;1797678;77;21037;-71
2021/03/18 04:36:58;;;;;;;18.80;7.03;;;;;;;2.18;67.87;99826.14;1801466;78;21221;-73
2021/03/18 04:39:27;;;;;;;14.05;7.40;;;;;;;2.17;67.93;99825.31;1797011;77;21119;-72
2021/03/18 04:41:55;;;;;;;14.50;7.40;;;;;;;2.20;67.94;99831.98;1784695;77;21820;-73
2021/03/18 04:44:23;;;;;;;12.70;5.75;;;;;;;2.22;67.98;99828.11;1789042;77;21159;-71
2021/03/18 04:46:52;;;;;;;19.70;8.60;;;;;;;2.24;67.86;99833.98;1790123;79;21195;-72
2021/03/18 04:49:21;;;;;;;17.92;8.48;;;;;;;2.23;67.80;99826.27;1790463;79;21583;-72
2021/03/18 04:51:49;;;;;;;17.30;7.60;;;;;;;2.24;67.79;99830.02;1810973;77;21161;-72
2021/03/18 04:54:17;;;;;;;20.48;8.45;;;;;;;2.27;67.77;99834.86;1800012;77;22651;-71
2021/03/18 04:56:45;;;;;;;16.70;8.90;;;;;;;2.30;67.67;99835.73;1795497;77;21113;-72
2021/03/18 04:59:14;;;;;;;13.55;6.72;;;;;;;2.33;67.58;99847.13;1798577;78;21160;-71
2021/03/18 05:01:51;;;;;;;14.73;6.58;;;;;;;2.34;67.53;99838.73;1804548;77;21159;-71
2021/03/18 05:04:20;;;;;;;14.07;7.12;;;;;;;2.33;67.43;99842.38;1799740;77;21170;-72
2021/03/18 05:06:53;;;;;;;15.05;6.65;;;;;;;2.33;67.44;99850.27;1808765;77;21200;-70
2021/03/18 05:09:25;;;;;;;15.03;5.85;;;;;;;2.33;67.43;99850.27;1807332;77;21177;-69
2021/03/18 05:11:54;;;;;;;15.98;5.87;;;;;;;2.34;67.46;99856.66;1797865;77;21194;-73
2021/03/18 05:14:23;;;;;;;16.55;6.80;;;;;;;2.35;67.34;99850.88;1803535;77;21139;-71
2021/03/18 05:16:51;;;;;;;13.35;5.72;;;;;;;2.35;67.41;99854.83;1798775;77;21174;-73
2021/03/18 05:19:19;;;;;;;20.08;6.90;;;;;;;2.37;67.41;99858.06;1799913;77;21826;-72
2021/03/18 05:21:48;;;;;;;15.35;6.33;;;;;;;2.39;67.36;99859.14;1807817;77;21596;-73
2021/03/18 05:24:16;;;;;;;13.70;5.50;;;;;;;2.38;67.30;99862.30;1813039;77;21619;-73
2021/03/18 05:26:44;;;;;;;15.00;6.53;;;;;;;2.43;67.30;99862.94;1818461;77;21211;-72
2021/03/18 05:29:13;;;;;;;19.57;7.37;;;;;;;2.43;67.29;99868.21;1817059;77;21187;-72
2021/03/18 05:31:43;;;;;;;14.15;6.20;;;;;;;2.45;67.14;99869.61;1798438;78;21234;-72
2021/03/18 05:34:12;;;;;;;19.67;7.28;;;;;;;2.46;67.08;99871.21;1818756;77;21127;-71
2021/03/18 05:36:40;;;;;;;19.45;7.12;;;;;;;2.51;66.96;99873.20;1821755;77;21133;-71
2021/03/18 05:39:08;;;;;;;13.72;6.15;;;;;;;2.54;66.82;99872.77;1799401;77;21190;-70
2021/03/18 05:41:36;;;;;;;15.43;6.28;;;;;;;2.56;66.64;99874.13;1798894;77;21152;-72
2021/03/18 05:44:06;;;;;;;13.38;6.17;;;;;;;2.59;66.57;99884.75;1792797;79;21282;-72
2021/03/18 05:46:34;;;;;;;12.03;6.03;;;;;;;2.61;66.51;99885.87;1793945;79;21135;-71
2021/03/18 05:49:03;;;;;;;17.70;6.90;;;;;;;2.64;66.39;99886.23;1809909;77;21572;-71
2021/03/18 05:51:33;;;;;;;14.65;6.40;;;;;;;2.65;66.20;99885.71;1816523;77;21690;-73
2021/03/18 05:54:03;;;;;;;15.40;6.17;;;;;;;2.66;66.14;99877.56;1804584;79;21147;-71
2021/03/18 05:56:31;;;;;;;14.53;6.78;;;;;;;2.69;66.14;99885.55;1785420;79;21472;-72
2021/03/18 05:58:59;;;;;;;17.00;6.70;;;;;;;2.72;65.97;99881.16;1770463;79;21182;-71
2021/03/18 06:01:28;;;;;;;17.65;6.80;;;;;;;2.74;66.00;99892.30;1799360;79;21266;-71
2021/03/18 06:03:57;;;;;;;15.30;7.17;;;;;;;2.78;66.08;99887.67;1802767;77;21152;-71
2021/03/18 06:06:26;;;;;;;14.43;6.70;;;;;;;2.83;66.07;99894.94;1815256;79;21134;-72
2021/03/18 06:08:55;;;;;;;14.53;6.28;;;;;;;2.88;66.16;99890.30;1810089;78;21204;-72
2021/03/18 06:11:23;;;;;;;12.63;6.67;;;;;;;2.94;66.14;99897.33;1804632;79;22388;-72
2021/03/18 06:13:52;;;;;;;14.35;6.65;;;;;;;2.95;66.16;99899.73;1786574;79;21183;-72
2021/03/18 06:16:20;;;;;;;16.17;6.95;;;;;;;2.95;66.36;99899.73;1794448;79;21214;-73
2021/03/18 06:18:48;;;;;;;17.20;7.42;;;;;;;2.98;66.62;99906.39;1779447;79;21170;-73
2021/03/18 06:21:17;;;;;;;14.83;7.20;;;;;;;3.00;66.78;99906.47;1800193;77;22326;-73
2021/03/18 06:24:00;;;;;;;15.78;7.30;;;;;;;3.01;66.94;99907.27;1805274;79;21143;-74
2021/03/18 06:26:36;;;;;;;17.00;7.00;;;;;;;3.11;67.20;99908.86;1808322;79;22667;-71
2021/03/18 06:29:24;;;;;;;12.75;7.08;;;;;;;3.11;67.37;99912.02;1769903;80;22504;-72
2021/03/18 06:31:52;;;;;;;12.93;5.75;;;;;;;3.16;67.51;99911.65;1745241;81;21217;-73
2021/03/18 06:34:46;;;;;;;14.50;6.83;;;;;;;3.25;67.66;99906.84;1725513;83;21137;-72
2021/03/18 06:37:43;;;;;;;14.15;7.78;;;;;;;3.27;67.60;99908.75;1714480;81;21126;-71
2021/03/18 06:40:24;;;;;;;15.05;7.45;;;;;;;3.27;67.67;99908.23;1710131;83;21149;-72
2021/03/18 06:43:02;;;;;;;15.80;7.37;;;;;;;3.26;67.84;99912.43;1709768;83;21146;-72
2021/03/18 06:45:40;;;;;;;17.10;7.78;;;;;;;3.28;67.92;99917.75;1733379;81;21597;-72
2021/03/18 06:48:13;;;;;;;14.03;6.40;;;;;;;3.31;68.01;99920.98;1738722;81;21141;-72
2021/03/18 06:50:46;;;;;;;12.65;7.60;;;;;;;3.35;68.01;99916.34;1742789;81;21244;-73
2021/03/18 06:53:25;;;;;;;14.58;7.60;;;;;;;3.37;67.92;99919.56;1740179;81;21128;-72
2021/03/18 06:55:53;;;;;;;14.53;7.85;;;;;;;3.38;67.89;99919.84;1744371;81;21054;-72
2021/03/18 06:58:23;;;;;;;15.48;7.60;;;;;;;3.36;67.96;99907.92;1736735;81;21916;-72
2021/03/18 07:00:55;;;;;;;14.05;7.67;;;;;;;3.40;68.13;99913.84;1713176;83;21208;-72
2021/03/18 07:03:34;;;;;;;14.83;7.67;;;;;;;3.49;68.17;99920.41;1717527;81;21204;-72
2021/03/18 07:06:06;;;;;;;13.95;7.30;;;;;;;3.57;68.07;99921.11;1687592;83;21121;-72
2021/03/18 07:08:39;;;;;;;20.37;8.43;;;;;;;3.61;67.97;99915.14;1714794;82;21187;-72
2021/03/18 07:11:22;;;;;;;13.78;8.03;;;;;;;3.69;67.82;99921.44;1722325;82;21462;-73
2021/03/18 07:13:51;;;;;;;15.05;7.87;;;;;;;3.76;67.78;99923.97;1709029;82;21622;-72
2021/03/18 07:16:19;;;;;;;13.30;8.13;;;;;;;3.86;67.51;99919.45;1718961;81;21208;-72
2021/03/18 07:18:56;;;;;;;21.48;9.23;;;;;;;3.91;67.31;99925.63;1718402;81;21292;-72
2021/03/18 07:21:37;;;;;;;12.78;7.75;;;;;;;3.95;67.28;99920.20;1737681;81;21651;-72
2021/03/18 07:24:38;;;;;;;17.95;8.80;;;;;;;4.03;67.13;99920.38;1707363;83;21349;-72
2021/03/18 07:27:12;;;;;;;24.55;9.63;;;;;;;4.09;66.78;99919.45;1694471;84;21701;-71
2021/03/18 07:29:45;;;;;;;20.30;8.73;;;;;;;4.18;66.67;99923.89;1711913;82;21192;-72
2021/03/18 07:32:14;;;;;;;18.90;8.68;;;;;;;4.30;66.32;99916.73;1762799;80;21152;-72
2021/03/18 07:34:44;;;;;;;18.48;8.65;;;;;;;4.43;65.94;99918.34;1745128;80;21176;-73
2021/03/18 07:37:12;;;;;;;16.17;8.53;;;;;;;4.57;65.58;99917.05;1748295;80;21393;-72
2021/03/18 07:39:41;;;;;;;18.20;8.83;;;;;;;4.73;65.05;99915.52;1762070;80;21463;-72
2021/03/18 07:42:09;;;;;;;22.15;9.95;;;;;;;4.86;64.47;99911.81;1757217;80;21145;-72
2021/03/18 07:44:38;;;;;;;24.32;10.00;;;;;;;4.92;64.20;99913.00;1715539;82;21137;-71
2021/03/18 07:47:06;;;;;;;14.18;7.55;;;;;;;5.03;63.84;99912.66;1738726;80;21173;-72
2021/03/18 07:49:46;;;;;;;18.92;8.18;;;;;;;5.15;63.44;99915.28;1713437;82;21801;-73
2021/03/18 07:52:20;;;;;;;15.63;7.92;;;;;;;5.24;62.77;99912.54;1760048;80;21133;-72
2021/03/18 07:54:50;;;;;;;17.55;8.68;;;;;;;5.32;62.57;99906.84;1726310;82;21213;-71
2021/03/18 07:57:18;;;;;;;23.60;8.38;;;;;;;5.48;62.40;99916.39;1720446;82;21196;-73
2021/03/18 07:59:50;;;;;;;28.10;9.90;;;;;;;5.69;62.15;99913.55;1728915;82;21224;-72
2021/03/18 08:02:22;;;;;;;22.95;10.25;;;;;;;5.92;61.01;99906.76;1706756;82;22097;-72
2021/03/18 08:04:52;;;;;;;18.20;8.70;;;;;;;6.07;60.29;99903.05;1755579;80;21201;-73
2021/03/18 08:07:46;;;;;;;28.07;9.15;;;;;;;6.20;59.15;99905.89;1758336;80;21518;-71
2021/03/18 08:10:26;;;;;;;22.73;9.00;;;;;;;6.25;58.98;99900.67;1766533;80;21190;-72
2021/03/18 08:12:59;;;;;;;27.77;9.58;;;;;;;6.26;58.71;99911.55;1760795;80;21715;-71
2021/03/18 08:15:34;;;;;;;26.80;12.85;;;;;;;6.31;58.75;99914.25;1758706;80;21800;-72
2021/03/18 08:18:23;;;;;;;21.30;11.28;;;;;;;6.33;59.51;99917.48;1758535;80;21649;-72
2021/03/18 08:21:01;;;;;;;21.85;12.00;;;;;;;6.32;59.73;99908.45;1763219;80;21185;-73
2021/03/18 08:23:34;;;;;;;21.75;10.82;;;;;;;6.28;59.91;99915.27;1707096;82;21244;-72
2021/03/18 08:26:10;;;;;;;23.83;11.45;;;;;;;6.24;59.93;99907.53;1710653;83;21217;-73
2021/03/18 08:28:48;;;;;;;26.68;12.70;;;;;;;6.16;59.89;99906.11;1707904;83;22014;-72
2021/03/18 08:31:20;;;;;;;20.40;9.80;;;;;;;6.09;59.88;99914.23;1762692;80;21693;-73
2021/03/18 08:33:54;;;;;;;23.95;11.43;;;;;;;6.05;59.77;99910.96;1760735;80;21196;-72
2021/03/18 08:36:29;;;;;;;20.62;10.13;;;;;;;5.97;59.59;99916.16;1768622;80;21250;-72
2021/03/18 08:39:12;;;;;;;21.87;10.18;;;;;;;5.85;59.50;99912.22;1763716;80;21636;-72
2021/03/18 08:41:45;;;;;;;28.10;10.93;;;;;;;5.72;59.37;99910.42;1738761;80;21383;-71
2021/03/18 08:44:25;;;;;;;26.77;11.38;;;;;;;5.61;59.60;99918.73;1763269;80;21164;-72
2021/03/18 08:47:05;;;;;;;32.35;12.98;;;;;;;5.55;59.67;99914.39;1744781;80;21173;-72
2021/03/18 08:49:43;;;;;;;26.62;12.90;;;;;;;5.51;60.27;99910.62;1756980;80;21184;-73
2021/03/18 08:52:19;;;;;;;21.77;10.88;;;;;;;5.44;60.55;99924.02;1759452;80;21140;-73
2021/03/18 08:54:50;;;;;;;27.70;11.15;;;;;;;5.42;60.75;99918.14;1759220;80;21225;-71
2021/03/18 08:57:29;;;;;;;27.95;10.65;;;;;;;5.39;60.92;99923.91;1751923;80;21306;-73
2021/03/18 09:00:07;;;;;;;26.60;12.63;;;;;;;5.40;60.72;99921.04;1761385;80;21573;-73
2021/03/18 09:02:35;;;;;;;22.50;10.93;;;;;;;5.43;60.79;99925.55;1760245;80;21010;-73
2021/03/18 09:05:17;;;;;;;22.60;10.90;;;;;;;5.39;60.92;99923.38;1762395;80;21139;-72
2021/03/18 09:07:53;;;;;;;22.32;10.28;;;;;;;5.37;60.93;99928.66;1767083;80;21206;-80
2021/03/18 09:10:30;;;;;;;27.32;11.45;;;;;;;5.28;61.12;99926.91;1764863;80;21182;-74
2021/03/18 09:13:05;;;;;;;23.02;10.65;;;;;;;5.25;61.10;99923.41;1703660;82;21199;-72
2021/03/18 09:15:37;;;;;;;19.98;11.25;;;;;;;5.23;61.16;99926.83;1686476;84;21592;-72
2021/03/18 09:18:30;;;;;;;19.67;9.88;;;;;;;5.23;61.50;99923.34;1769028;80;21113;-73
2021/03/18 09:21:16;;;;;;;24.77;10.23;;;;;;;5.29;61.07;99917.11;1835105;77;22701;-74
2021/03/18 09:23:47;;;;;;;23.90;10.03;;;;;;;5.29;60.95;99914.46;1831957;77;21136;-73
2021/03/18 09:26:20;;;;;;;23.80;11.30;;;;;;;5.37;60.79;99921.52;1805168;77;21371;-72
2021/03/18 09:28:51;;;;;;;23.95;11.00;;;;;;;5.47;60.90;99922.21;1834323;77;21168;-71
2021/03/18 09:31:23;;;;;;;19.10;10.53;;;;;;;5.59;60.83;99908.88;1828796;77;21144;-73
2021/03/18 09:33:54;;;;;;;22.13;11.68;;;;;;;5.73;60.57;99914.70;1828147;77;21165;-71
2021/03/18 09:36:26;;;;;;;24.00;9.38;;;;;;;5.85;60.28;99918.84;1826013;77;21140;-72
2021/03/18 09:39:13;;;;;;;20.43;9.98;;;;;;;5.94;59.61;99919.29;1798673;77;21243;-72
2021/03/18 09:41:48;;;;;;;22.07;11.48;;;;;;;5.98;59.47;99922.26;1822731;77;21169;-72
2021/03/18 09:44:23;;;;;;;22.20;11.15;;;;;;;6.01;59.46;99924.42;1819547;77;21156;-72
2021/03/18 09:47:04;;;;;;;20.90;10.55;;;;;;;5.99;59.44;99926.50;1841615;77;21133;-72
2021/03/18 09:49:37;;;;;;;19.75;9.68;;;;;;;5.94;59.57;99921.94;1834518;77;21622;-73
2021/03/18 09:52:12;;;;;;;18.15;9.00;;;;;;;5.93;59.65;99928.82;1835584;76;21796;-72
2021/03/18 09:54:41;;;;;;;19.02;8.93;;;;;;;5.92;59.34;99918.69;1836236;76;21170;-72
2021/03/18 09:57:10;;;;;;;12.75;8.60;;;;;;;5.92;59.01;99921.34;1828987;76;21124;-72
2021/03/18 09:59:39;;;;;;;18.45;9.40;;;;;;;5.93;58.76;99930.15;1819656;76;21548;-72
2021/03/18 10:02:07;;;;;;;24.35;10.05;;;;;;;5.95;58.53;99920.89;1827500;76;21183;-72
2021/03/18 10:04:39;;;;;;;20.52;9.90;;;;;;;6.01;58.31;99928.41;1819990;76;21813;-73
2021/03/18 10:07:08;;;;;;;17.02;8.65;;;;;;;6.03;58.01;99923.67;1822858;78;21187;-72
2021/03/18 10:09:45;;;;;;;17.10;8.40;;;;;;;6.03;57.96;99930.30;1828157;76;21207;-72
2021/03/18 10:12:21;;;;;;;17.50;8.40;;;;;;;6.05;58.15;99936.15;1798484;78;22659;-72
2021/03/18 10:15:05;;;;;;;15.83;7.67;;;;;;;6.09;57.93;99939.94;1793076;78;21187;-75
2021/03/18 10:17:39;;;;;;;14.25;7.97;;;;;;;6.09;57.73;99928.81;1807253;76;21417;-71
2021/03/18 10:20:20;;;;;;;13.45;7.80;;;;;;;6.14;57.69;99936.02;1821737;76;21174;-73
2021/03/18 10:23:01;;;;;;;16.40;7.83;;;;;;;6.19;57.40;99924.71;1809043;76;21655;-72
2021/03/18 10:25:31;;;;;;;15.50;7.85;;;;;;;6.28;57.30;99927.20;1792489;76;21159;-73
2021/03/18 10:28:10;;;;;;;14.58;7.28;;;;;;;6.37;56.96;99928.92;1817781;76;21056;-73
2021/03/18 10:30:48;;;;;;;13.20;6.95;;;;;;;6.44;56.54;99922.91;1813074;77;21257;-72
2021/03/18 10:33:22;;;;;;;17.57;7.62;;;;;;;6.47;56.31;99917.13;1817104;77;21244;-71
2021/03/18 10:36:00;;;;;;;13.15;6.67;;;;;;;6.52;56.02;99923.84;1805011;77;21227;-72
2021/03/18 10:38:34;;;;;;;17.27;7.97;;;;;;;6.61;55.69;99920.22;1813257;77;21171;-71
2021/03/18 10:41:11;;;;;;;15.63;7.10;;;;;;;6.65;55.07;99926.66;1814798;77;21152;-72
2021/03/18 10:43:43;;;;;;;16.32;7.33;;;;;;;6.64;54.88;99923.70;1800334;77;21400;-72
2021/03/18 10:46:18;;;;;;;17.95;7.60;;;;;;;6.65;54.74;99923.48;1812017;77;21147;-72
2021/03/18 10:48:55;;;;;;;12.05;5.65;;;;;;;6.66;54.40;99924.27;1819633;77;21557;-72
2021/03/18 10:51:23;;;;;;;15.80;6.47;;;;;;;6.68;54.00;99940.73;1800994;77;21180;-72
2021/03/18 10:53:52;;;;;;;13.25;6.17;;;;;;;6.63;53.89;99932.19;1776131;78;21168;-71
2021/03/18 10:56:29;;;;;;;15.45;5.28;;;;;;;6.64;53.90;99940.42;1837796;76;21702;-72
2021/03/18 10:59:14;;;;;;;21.33;7.97;;;;;;;6.67;53.57;99930.65;1817736;78;21100;-72
2021/03/18 11:01:43;;;;;;;11.90;6.72;;;;;;;6.69;53.46;99933.07;1810840;77;21207;-72
2021/03/18 11:04:12;;;;;;;14.13;7.47;;;;;;;6.70;53.57;99926.17;1818894;77;21892;-70
2021/03/18 11:06:48;;;;;;;14.18;6.37;;;;;;;6.68;53.63;99927.47;1815511;77;21620;-72
2021/03/18 11:09:17;;;;;;;12.63;5.90;;;;;;;6.60;53.52;99947.28;1822062;77;21367;-72
2021/03/18 11:11:58;;;;;;;12.80;5.47;;;;;;;6.50;53.79;99939.98;1811244;77;21210;-73
2021/03/18 11:14:27;;;;;;;10.50;5.12;;;;;;;6.43;53.76;99935.91;1817299;77;21633;-71
2021/03/18 11:17:08;;;;;;;12.45;5.10;;;;;;;6.37;53.66;99940.86;1816334;77;21695;-73
2021/03/18 11:19:37;;;;;;;14.43;6.45;;;;;;;6.32;53.81;99932.32;1806705;77;21239;-73
2021/03/18 11:22:06;;;;;;;14.87;6.70;;;;;;;6.32;53.85;99928.34;1811480;78;21381;-73
2021/03/18 11:24:34;;;;;;;12.55;5.62;;;;;;;6.29;53.54;99930.95;1813917;77;21214;-72
2021/03/18 11:27:04;;;;;;;10.98;5.25;;;;;;;6.25;53.48;99928.52;1817298;77;21857;-71
2021/03/18 11:29:35;;;;;;;15.43;5.85;;;;;;;6.22;53.56;99925.52;1820290;77;21164;-71
2021/03/18 11:32:06;;;;;;;17.25;6.85;;;;;;;6.15;53.26;99936.30;1817568;77;21188;-71
2021/03/18 11:34:36;;;;;;;;;;;;;;;6.09;53.40;99931.98;1810670;77;21622;-71
2021/03/18 11:37:08;;;;;;;12.47;5.05;;;;;;;6.06;53.42;99937.25;1813758;77;20701;-70
2021/03/18 11:39:38;;;;;;;6.87;4.37;;;;;;;6.03;53.27;99937.73;1817307;78;21164;-72
2021/03/18 11:42:06;;;;;;;9.03;4.17;;;;;;;5.96;53.43;99940.27;1825158;77;21167;-71
2021/03/18 11:44:35;;;;;;;8.75;4.12;;;;;;;5.91;53.45;99932.19;1818054;77;21709;-71
2021/03/18 11:47:07;;;;;;;8.75;4.55;;;;;;;5.89;53.49;99937.75;1811779;77;22810;-72
2021/03/18 11:49:37;;;;;;;10.43;4.67;;;;;;;5.92;53.72;99936.44;1819192;77;21311;-72
2021/03/18 11:52:05;;;;;;;11.28;4.53;;;;;;;5.96;53.76;99932.31;1814960;77;21208;-72
2021/03/18 11:54:34;;;;;;;7.87;4.35;;;;;;;5.98;53.59;99928.36;1823240;77;21191;-71
2021/03/18 11:57:05;;;;;;;11.40;4.80;;;;;;;6.03;53.46;99928.98;1806447;77;21177;-71